createdAt,value
2018-08-24T00:00:14.718Z,84.14
2018-08-24T00:05:30.067Z,84.08
2018-08-24T00:07:57.015Z,84.06
2018-08-24T00:10:23.996Z,83.28
2018-08-24T00:12:50.949Z,83.63
2018-08-24T00:15:17.900Z,83.80
2018-08-24T00:17:46.975Z,82.83
2018-08-24T00:20:13.972Z,81.30
2018-08-24T00:22:41.051Z,81.41
2018-08-24T00:25:08.028Z,81.03
2018-08-24T00:27:35.977Z,80.09
2018-08-24T00:30:03.576Z,80.45
2018-08-24T00:32:30.474Z,80.58
2018-08-24T00:34:58.495Z,80.68
2018-08-24T00:37:25.415Z,79.99
2018-08-24T00:39:52.404Z,82.90
2018-08-24T00:42:19.354Z,83.12
2018-08-24T00:44:51.131Z,83.16
2018-08-24T00:47:18.085Z,83.59
2018-08-24T00:49:45.041Z,84.20
2018-08-24T00:52:11.956Z,83.58
2018-08-24T00:54:38.951Z,84.49
2018-08-24T00:57:06.047Z,83.79
2018-08-24T00:59:32.959Z,83.14
2018-08-24T01:01:59.969Z,84.48
2018-08-24T01:04:33.223Z,82.72
2018-08-24T01:07:09.791Z,82.66
2018-08-24T01:09:37.380Z,80.51
2018-08-24T01:12:10.163Z,80.34
2018-08-24T01:14:37.563Z,80.33
2018-08-24T01:17:10.519Z,80.15
2018-08-24T01:19:40.670Z,80.31
2018-08-24T01:22:08.560Z,79.93
2018-08-24T01:24:36.106Z,79.29
2018-08-24T01:27:04.340Z,79.26
2018-08-24T01:29:33.906Z,79.67
2018-08-24T01:32:01.008Z,79.82
2018-08-24T01:34:27.945Z,80.66
2018-08-24T01:36:54.907Z,80.61
2018-08-24T01:39:23.908Z,80.20
2018-08-24T01:41:50.895Z,80.94
2018-08-24T01:44:17.827Z,80.85
2018-08-24T01:46:44.755Z,81.97
2018-08-24T01:49:12.580Z,80.73
2018-08-24T01:51:39.536Z,80.83
2018-08-24T01:54:06.632Z,81.59
2018-08-24T01:56:33.660Z,81.23
2018-08-24T01:59:00.619Z,81.87
2018-08-24T02:01:27.593Z,81.61
2018-08-24T02:03:54.516Z,82.13
2018-08-24T02:06:21.485Z,83.67
2018-08-24T02:08:48.429Z,83.87
2018-08-24T02:11:21.161Z,83.61
2018-08-24T02:13:54.776Z,83.76
2018-08-24T02:16:21.695Z,81.88
2018-08-24T02:18:54.482Z,81.98
2018-08-24T02:21:27.255Z,82.50
2018-08-24T02:23:56.191Z,82.03
2018-08-24T02:26:24.155Z,82.89
2018-08-24T02:28:51.110Z,82.50
2018-08-24T02:31:18.105Z,82.67
2018-08-24T02:33:45.053Z,82.66
2018-08-24T02:36:12.018Z,83.15
2018-08-24T02:38:39.382Z,82.28
2018-08-24T02:41:06.416Z,81.38
2018-08-24T02:43:33.379Z,81.39
2018-08-24T02:46:00.375Z,81.99
2018-08-24T02:48:27.322Z,81.97
2018-08-24T02:50:54.211Z,82.49
2018-08-24T02:53:21.233Z,82.87
2018-08-24T02:55:48.169Z,82.53
2018-08-24T02:58:15.138Z,83.01
2018-08-24T03:00:42.099Z,82.12
2018-08-24T03:03:09.075Z,83.14
2018-08-24T03:05:36.180Z,81.75
2018-08-24T03:08:03.672Z,82.50
2018-08-24T03:10:30.644Z,82.28
2018-08-24T03:12:57.552Z,83.99
2018-08-24T03:15:24.566Z,83.45
2018-08-24T03:17:52.420Z,82.25
2018-08-24T03:20:20.343Z,83.34
2018-08-24T03:22:47.315Z,84.57
2018-08-24T03:25:14.233Z,84.03
2018-08-24T03:27:41.229Z,84.68
2018-08-24T03:30:08.297Z,84.75
2018-08-24T03:32:35.287Z,83.62
2018-08-24T03:35:02.260Z,84.83
2018-08-24T03:37:30.123Z,84.19
2018-08-24T03:39:57.079Z,83.47
2018-08-24T03:42:24.067Z,83.04
2018-08-24T03:44:50.964Z,84.13
2018-08-24T03:47:17.949Z,83.97
2018-08-24T03:49:44.934Z,83.25
2018-08-24T03:52:11.868Z,83.12
2018-08-24T03:54:38.819Z,83.64
2018-08-24T03:57:05.869Z,83.79
2018-08-24T03:59:32.847Z,82.94
2018-08-24T04:02:07.972Z,83.47
2018-08-24T04:04:34.956Z,82.84
2018-08-24T04:07:01.900Z,80.09
2018-08-24T04:09:28.863Z,82.06
2018-08-24T04:11:55.827Z,81.31
2018-08-24T04:14:22.790Z,82.46
2018-08-24T04:16:55.419Z,83.10
2018-08-24T04:19:27.841Z,83.31
2018-08-24T04:21:55.012Z,83.19
2018-08-24T04:24:23.027Z,84.37
2018-08-24T04:26:51.473Z,84.29
2018-08-24T04:29:18.480Z,85.16
2018-08-24T04:31:46.454Z,84.73
2018-08-24T04:34:13.384Z,84.21
2018-08-24T04:36:41.371Z,83.69
2018-08-24T04:39:09.827Z,84.57
2018-08-24T04:41:37.107Z,84.97
2018-08-24T04:44:05.783Z,85.94
2018-08-24T04:46:33.177Z,84.88
2018-08-24T04:49:00.143Z,84.73
2018-08-24T04:51:27.583Z,85.07
2018-08-24T04:53:54.471Z,85.00
2018-08-24T04:56:21.457Z,84.81
2018-08-24T04:58:50.463Z,85.14
2018-08-24T05:01:17.494Z,85.08
2018-08-24T05:03:44.707Z,84.24
2018-08-24T05:06:11.629Z,85.09
2018-08-24T05:08:38.595Z,83.73
2018-08-24T05:11:05.515Z,85.05
2018-08-24T05:13:32.487Z,85.42
2018-08-24T05:15:59.835Z,84.16
2018-08-24T05:18:26.807Z,84.05
2018-08-24T05:20:53.771Z,83.82
2018-08-24T05:23:20.727Z,84.45
2018-08-24T05:25:47.688Z,84.19
2018-08-24T05:28:14.913Z,84.92
2018-08-24T05:30:42.933Z,84.57
2018-08-24T05:33:10.492Z,83.53
2018-08-24T05:35:37.560Z,84.45
2018-08-24T05:38:04.928Z,84.49
2018-08-24T05:40:31.912Z,84.37
2018-08-24T05:42:58.813Z,83.53
2018-08-24T05:45:25.823Z,81.96
2018-08-24T05:47:52.767Z,82.68
2018-08-24T05:50:20.236Z,81.58
2018-08-24T05:52:47.175Z,82.31
2018-08-24T05:55:15.183Z,82.28
2018-08-24T05:57:42.152Z,81.84
2018-08-24T06:00:10.267Z,80.98
2018-08-24T06:02:37.166Z,81.94
2018-08-24T06:05:04.101Z,81.51
2018-08-24T06:07:31.087Z,82.51
2018-08-24T06:09:58.800Z,83.20
2018-08-24T06:12:25.720Z,82.52
2018-08-24T06:14:52.729Z,81.40
2018-08-24T06:17:25.330Z,81.40
2018-08-24T06:19:53.360Z,80.83
2018-08-24T06:22:20.312Z,79.56
2018-08-24T06:24:47.313Z,78.75
2018-08-24T06:27:16.791Z,78.77
2018-08-24T06:29:44.263Z,78.12
2018-08-24T06:32:11.865Z,78.39
2018-08-24T06:34:38.782Z,79.10
2018-08-24T06:37:05.956Z,79.66
2018-08-24T06:39:32.773Z,80.02
2018-08-24T06:42:00.349Z,78.91
2018-08-24T06:44:27.738Z,77.26
2018-08-24T06:46:54.696Z,78.62
2018-08-24T06:49:21.623Z,76.76
2018-08-24T06:51:49.226Z,75.83
2018-08-24T06:54:16.183Z,76.32
2018-08-24T06:56:43.140Z,75.68
2018-08-24T06:59:10.144Z,74.36
2018-08-24T07:01:37.052Z,73.43
2018-08-24T07:04:04.036Z,72.94
2018-08-24T07:06:32.837Z,73.30
2018-08-24T07:08:59.783Z,72.15
2018-08-24T07:11:28.815Z,71.98
2018-08-24T07:13:57.384Z,71.67
2018-08-24T07:16:24.327Z,71.02
2018-08-24T07:18:51.269Z,70.38
2018-08-24T07:21:18.864Z,69.59
2018-08-24T07:23:45.803Z,70.27
2018-08-24T07:26:12.796Z,69.67
2018-08-24T07:28:39.906Z,69.87
2018-08-24T07:31:07.156Z,70.94
2018-08-24T07:33:34.072Z,70.35
2018-08-24T07:36:01.013Z,70.67
2018-08-24T07:38:27.967Z,72.24
2018-08-24T07:40:54.941Z,72.40
2018-08-24T07:43:22.919Z,72.53
2018-08-24T07:45:51.910Z,73.06
2018-08-24T07:48:20.899Z,72.15
2018-08-24T07:50:47.903Z,72.10
2018-08-24T07:53:14.839Z,72.41
2018-08-24T07:55:41.819Z,71.88
2018-08-24T07:58:08.764Z,73.57
2018-08-24T08:00:35.845Z,73.27
2018-08-24T08:03:02.776Z,72.61
2018-08-24T08:05:29.766Z,73.22
2018-08-24T08:07:57.322Z,72.71
2018-08-24T08:10:29.020Z,72.16
2018-08-24T08:12:56.008Z,72.99
2018-08-24T08:15:23.028Z,71.62
2018-08-24T08:17:50.866Z,71.40
2018-08-24T08:20:17.804Z,71.28
2018-08-24T08:22:46.822Z,70.52
2018-08-24T08:25:13.837Z,70.78
2018-08-24T08:27:40.750Z,71.81
2018-08-24T08:30:11.367Z,73.00
2018-08-24T08:32:38.378Z,73.09
2018-08-24T08:35:05.331Z,72.60
2018-08-24T08:37:32.262Z,73.67
2018-08-24T08:40:03.839Z,72.78
2018-08-24T08:42:30.858Z,72.04
2018-08-24T08:44:59.057Z,72.36
2018-08-24T08:47:26.051Z,72.33
2018-08-24T08:49:53.130Z,72.76
2018-08-24T08:52:20.060Z,75.39
2018-08-24T08:54:46.998Z,76.52
2018-08-24T08:57:14.891Z,77.60
2018-08-24T08:59:42.867Z,78.81
2018-08-24T09:02:10.626Z,79.72
2018-08-24T09:04:38.300Z,79.64
2018-08-24T09:07:07.958Z,80.98
2018-08-24T09:09:36.429Z,80.81
2018-08-24T09:12:03.399Z,81.45
2018-08-24T09:14:30.339Z,80.56
2018-08-24T09:16:58.348Z,79.60
2018-08-24T09:19:37.236Z,79.81
2018-08-24T09:22:09.871Z,79.16
2018-08-24T09:24:44.163Z,76.36
2018-08-24T09:27:16.979Z,77.58
2018-08-24T09:29:43.987Z,76.02
2018-08-24T09:32:10.932Z,75.39
2018-08-24T09:34:37.986Z,75.46
2018-08-24T09:37:24.614Z,74.39
2018-08-24T09:39:51.499Z,75.18
2018-08-24T09:42:19.434Z,74.65
2018-08-24T09:44:46.335Z,76.89
2018-08-24T09:47:19.116Z,74.77
2018-08-24T09:49:46.027Z,74.23
2018-08-24T09:52:18.825Z,74.82
2018-08-24T09:54:45.788Z,74.48
2018-08-24T09:57:12.768Z,73.52
2018-08-24T09:59:39.709Z,73.87
2018-08-24T10:02:14.319Z,73.89
2018-08-24T10:04:47.102Z,72.89
2018-08-24T10:07:24.299Z,74.17
2018-08-24T10:09:51.311Z,73.21
2018-08-24T10:12:18.244Z,74.30
2018-08-24T10:14:45.214Z,73.98
2018-08-24T10:17:13.215Z,72.82
2018-08-24T10:19:40.984Z,73.21
2018-08-24T10:22:08.012Z,73.99
2018-08-24T10:24:35.906Z,74.32
2018-08-24T10:27:02.869Z,73.57
2018-08-24T10:29:29.869Z,73.13
2018-08-24T10:31:57.253Z,73.77
2018-08-24T10:34:24.244Z,72.09
2018-08-24T10:36:51.201Z,72.14
2018-08-24T10:39:18.111Z,72.51
2018-08-24T10:41:45.947Z,72.56
2018-08-24T10:44:12.903Z,72.08
2018-08-24T10:46:39.876Z,71.21
2018-08-24T10:49:06.875Z,71.08
2018-08-24T10:51:34.831Z,71.43
2018-08-24T10:54:01.732Z,72.68
2018-08-24T10:56:28.704Z,72.16
2018-08-24T10:58:55.772Z,73.01
2018-08-24T11:01:22.703Z,73.06
2018-08-24T11:03:49.691Z,73.09
2018-08-24T11:06:20.445Z,72.57
2018-08-24T11:08:47.381Z,72.98
2018-08-24T11:11:14.351Z,71.78
2018-08-24T11:13:41.267Z,71.86
2018-08-24T11:16:08.288Z,71.53
2018-08-24T11:18:35.248Z,70.88
2018-08-24T11:21:02.220Z,70.97
2018-08-24T11:23:29.198Z,70.17
2018-08-24T11:25:56.246Z,69.57
2018-08-24T11:28:25.003Z,69.22
2018-08-24T11:30:51.955Z,68.08
2018-08-24T11:33:21.552Z,68.15
2018-08-24T11:35:48.488Z,69.54
2018-08-24T11:38:15.471Z,68.82
2018-08-24T11:40:42.460Z,68.60
2018-08-24T11:43:09.399Z,68.02
2018-08-24T11:45:36.343Z,68.25
2018-08-24T11:48:03.343Z,70.00
2018-08-24T11:50:30.255Z,69.08
2018-08-24T11:52:57.214Z,69.40
2018-08-24T11:55:24.142Z,67.82
2018-08-24T11:57:51.153Z,68.88
2018-08-24T12:00:18.119Z,68.48
2018-08-24T12:02:45.070Z,68.81
2018-08-24T12:05:12.012Z,67.67
2018-08-24T12:07:38.932Z,67.11
2018-08-24T12:10:06.966Z,64.61
2018-08-24T12:12:33.937Z,63.81
2018-08-24T12:15:00.879Z,65.10
2018-08-24T12:17:31.383Z,65.09
2018-08-24T12:19:59.008Z,64.26
2018-08-24T12:22:25.967Z,63.91
2018-08-24T12:24:53.276Z,62.91
2018-08-24T12:27:20.248Z,63.59
2018-08-24T12:29:47.224Z,62.25
2018-08-24T12:32:15.192Z,62.91
2018-08-24T12:34:44.277Z,62.76
2018-08-24T12:37:12.778Z,62.12
2018-08-24T12:39:40.555Z,62.01
2018-08-24T12:42:08.628Z,62.42
2018-08-24T12:44:35.672Z,61.99
2018-08-24T12:47:03.818Z,59.39
2018-08-24T12:49:30.964Z,60.32
2018-08-24T12:51:57.971Z,60.40
2018-08-24T12:54:24.876Z,60.85
2018-08-24T12:56:52.973Z,60.12
2018-08-24T12:59:20.384Z,59.69
2018-08-24T13:01:48.495Z,60.99
2018-08-24T13:04:15.468Z,58.96
2018-08-24T13:06:43.068Z,59.70
2018-08-24T13:09:10.007Z,59.28
2018-08-24T13:11:37.049Z,59.05
2018-08-24T13:14:04.027Z,57.35
2018-08-24T13:16:33.033Z,58.60
2018-08-24T13:18:59.987Z,59.08
2018-08-24T13:21:26.998Z,58.03
2018-08-24T13:23:53.927Z,57.18
2018-08-24T13:26:21.604Z,58.43
2018-08-24T13:28:48.523Z,58.52
2018-08-24T13:31:15.499Z,57.61
2018-08-24T13:33:42.480Z,58.17
2018-08-24T13:36:09.477Z,57.01
2018-08-24T13:38:37.492Z,55.82
2018-08-24T13:41:04.587Z,56.81
2018-08-24T13:43:31.507Z,57.34
2018-08-24T13:45:58.452Z,55.44
2018-08-24T13:48:25.416Z,56.34
2018-08-24T13:50:52.359Z,53.86
2018-08-24T13:53:19.424Z,53.72
2018-08-24T13:55:46.392Z,54.07
2018-08-24T13:58:13.372Z,52.81
2018-08-24T14:00:42.365Z,52.81
2018-08-24T14:03:09.320Z,54.17
2018-08-24T14:05:36.256Z,54.89
2018-08-24T14:08:03.301Z,54.45
2018-08-24T14:10:31.338Z,55.45
2018-08-24T14:12:58.301Z,55.72
2018-08-24T14:15:25.249Z,55.95
2018-08-24T14:17:53.503Z,55.99
2018-08-24T14:20:21.695Z,56.33
2018-08-24T14:22:48.667Z,54.79
2018-08-24T14:25:19.003Z,54.02
2018-08-24T14:27:45.952Z,53.47
2018-08-24T14:30:12.962Z,54.20
2018-08-24T14:32:39.974Z,54.83
2018-08-24T14:35:07.239Z,56.18
2018-08-24T14:37:35.271Z,56.47
2018-08-24T14:40:02.289Z,55.49
2018-08-24T14:42:29.232Z,54.86
2018-08-24T14:44:56.184Z,54.64
2018-08-24T14:47:23.193Z,55.57
2018-08-24T14:49:50.412Z,55.01
2018-08-24T14:52:17.392Z,55.85
2018-08-24T14:54:44.356Z,56.06
2018-08-24T14:57:11.295Z,56.97
2018-08-24T14:59:38.282Z,56.46
2018-08-24T15:02:05.199Z,57.60
2018-08-24T15:04:32.340Z,57.08
2018-08-24T15:06:59.228Z,57.66
2018-08-24T15:09:26.185Z,58.07
2018-08-24T15:11:53.132Z,57.70
2018-08-24T15:14:20.119Z,58.80
2018-08-24T15:16:47.121Z,59.36
2018-08-24T15:19:14.238Z,58.70
2018-08-24T15:21:41.170Z,57.25
2018-08-24T15:24:09.548Z,57.82
2018-08-24T15:26:36.509Z,58.08
2018-08-24T15:29:03.579Z,58.33
2018-08-24T15:31:30.531Z,58.44
2018-08-24T15:33:57.472Z,58.63
2018-08-24T15:36:24.460Z,58.76
2018-08-24T15:38:51.527Z,58.70
2018-08-24T15:41:18.490Z,58.61
2018-08-24T15:43:45.458Z,58.60
2018-08-24T15:46:13.125Z,58.07
2018-08-24T15:48:40.074Z,58.25
2018-08-24T15:51:07.038Z,58.56
2018-08-24T15:53:33.976Z,58.00
2018-08-24T15:56:01.033Z,57.88
2018-08-24T15:58:27.992Z,56.17
2018-08-24T16:00:54.947Z,57.35
2018-08-24T16:03:21.892Z,56.33
2018-08-24T16:05:48.829Z,55.47
2018-08-24T16:08:15.812Z,56.16
2018-08-24T16:10:42.767Z,55.85
2018-08-24T16:13:09.727Z,56.08
2018-08-24T16:15:36.699Z,55.90
2018-08-24T16:18:09.315Z,55.66
2018-08-24T16:20:37.256Z,56.15
2018-08-24T16:23:04.493Z,55.33
2018-08-24T16:25:31.535Z,55.38
2018-08-24T16:27:58.416Z,56.36
2018-08-24T16:30:25.393Z,56.24
2018-08-24T16:32:52.352Z,56.99
2018-08-24T16:35:19.319Z,57.78
2018-08-24T16:37:46.283Z,57.95
2018-08-24T16:40:13.252Z,57.75
2018-08-24T16:42:40.187Z,56.89
2018-08-24T16:45:08.191Z,58.35
2018-08-24T16:47:35.212Z,57.68
2018-08-24T16:50:02.232Z,57.64
2018-08-24T16:52:29.194Z,57.63
2018-08-24T16:54:56.104Z,58.19
2018-08-24T16:57:23.076Z,57.05
2018-08-24T16:59:51.036Z,57.69
2018-08-24T17:02:17.970Z,57.28
2018-08-24T17:04:44.958Z,56.93
2018-08-24T17:07:11.912Z,57.32
2018-08-24T17:09:38.904Z,58.06
2018-08-24T17:12:05.828Z,57.12
2018-08-24T17:14:32.811Z,58.62
2018-08-24T17:16:59.737Z,58.59
2018-08-24T17:19:28.752Z,57.67
2018-08-24T17:21:55.685Z,58.42
2018-08-24T17:24:22.812Z,57.67
2018-08-24T17:26:49.716Z,58.39
2018-08-24T17:29:16.671Z,57.91
2018-08-24T17:31:43.615Z,59.33
2018-08-24T17:34:10.604Z,58.57
2018-08-24T17:36:37.535Z,59.07
2018-08-24T17:39:07.724Z,58.23
2018-08-24T17:41:34.640Z,57.88
2018-08-24T17:44:01.579Z,58.65
2018-08-24T17:46:28.537Z,58.85
2018-08-24T17:48:55.533Z,58.56
2018-08-24T17:51:22.495Z,59.15
2018-08-24T17:53:49.448Z,58.58
2018-08-24T17:56:16.364Z,59.04
2018-08-24T17:58:44.284Z,58.82
2018-08-24T18:01:15.008Z,59.53
2018-08-24T18:03:41.975Z,59.44
2018-08-24T18:06:08.935Z,58.93
2018-08-24T18:08:35.902Z,58.47
2018-08-24T18:11:02.862Z,58.61
2018-08-24T18:13:29.836Z,59.05
2018-08-24T18:15:56.943Z,59.40
2018-08-24T18:18:23.919Z,58.35
2018-08-24T18:20:51.949Z,58.64
2018-08-24T18:23:18.855Z,58.90
2018-08-24T18:25:46.755Z,59.21
2018-08-24T18:28:13.670Z,58.55
2018-08-24T18:30:40.558Z,59.37
2018-08-24T18:33:08.550Z,58.50
2018-08-24T18:35:35.500Z,59.28
2018-08-24T18:38:05.234Z,59.52
2018-08-24T18:40:32.832Z,59.61
2018-08-24T18:42:59.747Z,58.84
2018-08-24T18:45:26.718Z,58.36
2018-08-24T18:47:53.641Z,58.56
2018-08-24T18:50:20.618Z,59.13
2018-08-24T18:52:49.612Z,58.52
2018-08-24T18:55:16.567Z,58.62
2018-08-24T18:57:43.575Z,58.59
2018-08-24T19:00:10.459Z,59.35
2018-08-24T19:02:37.467Z,59.19
2018-08-24T19:05:14.748Z,59.03
2018-08-24T19:07:44.693Z,58.81
2018-08-24T19:10:11.615Z,59.03
2018-08-24T19:12:40.240Z,58.93
2018-08-24T19:15:11.191Z,59.23
2018-08-24T19:17:49.951Z,59.50
2018-08-24T19:20:22.604Z,60.64
2018-08-24T19:22:49.584Z,61.05
2018-08-24T19:25:16.547Z,62.82
2018-08-24T19:27:49.165Z,63.19
2018-08-24T19:30:21.747Z,63.85
2018-08-24T19:32:48.761Z,64.50
2018-08-24T19:35:15.616Z,64.55
2018-08-24T19:37:42.572Z,65.11
2018-08-24T19:40:16.335Z,64.92
2018-08-24T19:42:43.336Z,63.19
2018-08-24T19:45:10.312Z,63.93
2018-08-24T19:47:43.513Z,63.00
2018-08-24T19:50:10.476Z,62.35
2018-08-24T19:52:37.467Z,62.18
2018-08-24T19:55:04.473Z,61.70
2018-08-24T19:57:37.008Z,61.24
2018-08-24T20:00:03.978Z,61.51
2018-08-24T20:02:30.840Z,61.71
2018-08-24T20:04:57.768Z,60.65
2018-08-24T20:07:31.278Z,60.70
2018-08-24T20:10:07.456Z,60.68
2018-08-24T20:12:34.316Z,60.69
2018-08-24T20:15:07.051Z,61.13
2018-08-24T20:17:33.913Z,60.14
2018-08-24T20:20:00.908Z,60.29
2018-08-24T20:22:27.877Z,59.35
2018-08-24T20:24:54.835Z,59.20
2018-08-24T20:27:21.787Z,59.92
2018-08-24T20:29:50.795Z,59.62
2018-08-24T20:32:17.807Z,60.44
2018-08-24T20:34:45.008Z,60.84
2018-08-24T20:37:12.239Z,60.02
2018-08-24T20:39:41.039Z,61.20
2018-08-24T20:42:07.999Z,60.52
2018-08-24T20:44:35.948Z,61.42
2018-08-24T20:47:02.827Z,60.79
2018-08-24T20:49:32.790Z,60.75
2018-08-24T20:51:59.755Z,60.70
2018-08-24T20:54:28.736Z,61.05
2018-08-24T20:56:55.613Z,60.56
2018-08-24T20:59:22.563Z,60.56
2018-08-24T21:01:50.744Z,60.20
2018-08-24T21:04:17.827Z,59.08
2018-08-24T21:06:44.659Z,58.83
2018-08-24T21:09:11.635Z,59.29
2018-08-24T21:11:38.569Z,60.08
2018-08-24T21:14:06.461Z,59.08
2018-08-24T21:16:33.483Z,59.75
2018-08-24T21:19:00.447Z,59.90
2018-08-24T21:21:27.443Z,59.46
2018-08-24T21:23:54.402Z,59.86
2018-08-24T21:26:21.359Z,60.14
2018-08-24T21:28:48.258Z,59.24
2018-08-24T21:31:15.273Z,60.20
2018-08-24T21:33:42.211Z,59.42
2018-08-24T21:36:10.187Z,60.62
2018-08-24T21:38:37.139Z,60.39
2018-08-24T21:41:04.803Z,59.77
2018-08-24T21:43:31.786Z,60.54
2018-08-24T21:45:58.832Z,59.76
2018-08-24T21:48:25.713Z,59.97
2018-08-24T21:50:52.631Z,60.16
2018-08-24T21:53:19.592Z,60.63
2018-08-24T21:55:47.417Z,60.09
2018-08-24T21:58:14.365Z,61.13
2018-08-24T22:00:42.075Z,60.17
2018-08-24T22:03:09.990Z,61.07
2018-08-24T22:05:36.962Z,61.44
2018-08-24T22:08:03.911Z,61.84
2018-08-24T22:10:30.884Z,61.94
2018-08-24T22:12:57.815Z,61.44
2018-08-24T22:15:24.811Z,62.21
2018-08-24T22:17:52.083Z,62.13
2018-08-24T22:20:19.072Z,62.33
2018-08-24T22:22:46.085Z,62.20
2018-08-24T22:25:14.056Z,62.03
2018-08-24T22:27:43.059Z,62.03
2018-08-24T22:30:10.016Z,61.88
2018-08-24T22:32:38.003Z,61.04
2018-08-24T22:35:04.920Z,61.70
2018-08-24T22:37:31.915Z,62.21
2018-08-24T22:39:58.943Z,61.83
2018-08-24T22:42:27.909Z,61.42
2018-08-24T22:44:54.796Z,62.67
2018-08-24T22:47:21.823Z,63.35
2018-08-24T22:49:49.377Z,62.91
2018-08-24T22:52:16.336Z,63.78
2018-08-24T22:54:43.246Z,64.98
2018-08-24T22:57:13.330Z,65.30
2018-08-24T22:59:40.243Z,64.33
2018-08-24T23:02:07.959Z,64.79
2018-08-24T23:04:34.909Z,64.91
2018-08-24T23:07:01.856Z,64.43
2018-08-24T23:09:28.807Z,65.17
2018-08-24T23:11:55.762Z,64.33
2018-08-24T23:14:23.347Z,64.59
2018-08-24T23:16:50.275Z,65.02
2018-08-24T23:19:17.243Z,64.87
2018-08-24T23:21:44.919Z,64.84
2018-08-24T23:24:11.884Z,64.73
2018-08-24T23:26:39.871Z,65.01
2018-08-24T23:29:06.816Z,65.20
2018-08-24T23:31:33.803Z,64.50
2018-08-24T23:34:00.812Z,64.63
2018-08-24T23:36:28.409Z,65.41
2018-08-24T23:38:55.428Z,65.12
2018-08-24T23:41:22.508Z,65.11
2018-08-24T23:43:49.429Z,66.64
2018-08-24T23:46:16.426Z,66.13
2018-08-24T23:48:43.446Z,66.05
2018-08-24T23:51:10.348Z,66.90
2018-08-24T23:53:37.319Z,65.98
2018-08-24T23:56:04.508Z,66.47
2018-08-24T23:58:31.495Z,66.62
